Time;durP1;ratioP1;P1;durP2;ratioP2;P2;SDS_P1;SDS_P2;PMS_P1;PMS_P2;Temp;Humidity;BMP_temperature;BMP_pressure;BME280_temperature;BME280_humidity;BME280_pressure;Samples;Min_cycle;Max_cycle;Signal;HPM_P1;HPM_P2
2022/01/02 07:45:18;;;;;;;8.73;5.90;;;5.10;99.90;;;;;;4751946;29;20507;-93
2022/01/02 07:47:53;;;;;;;8.43;5.90;;;5.10;99.90;;;;;;4751249;29;20474;-95
2022/01/02 07:50:18;;;;;;;6.20;5.37;;;5.10;99.90;;;;;;4737581;29;20464;-94
2022/01/02 07:53:15;;;;;;;7.67;6.50;;;5.00;99.90;;;;;;4754688;29;20500;-95
2022/01/02 07:55:52;;;;;;;;;;;;;;;;;;;;;
2022/01/02 07:58:18;;;;;;;7.40;5.50;;;5.00;99.90;;;;;;4752142;29;20456;-91
2022/01/02 08:00:43;;;;;;;6.10;5.03;;;5.00;99.90;;;;;;4731197;29;20488;-91
2022/01/02 08:03:09;;;;;;;7.20;5.50;;;5.00;99.90;;;;;;4733405;29;20207;-93
2022/01/02 08:05:35;;;;;;;7.00;5.27;;;5.00;99.90;;;;;;4749160;29;20341;-93
2022/01/02 08:08:17;;;;;;;;;;;;;;;;;;;;;
2022/01/02 08:10:42;;;;;;;8.33;5.97;;;4.90;99.90;;;;;;4758584;29;20215;-93
2022/01/02 08:13:10;;;;;;;5.90;5.13;;;4.90;99.90;;;;;;4763696;29;20475;-93
2022/01/02 08:15:36;;;;;;;6.63;6.03;;;4.90;99.90;;;;;;4735415;29;20223;-93
2022/01/02 08:18:02;;;;;;;6.60;5.43;;;5.00;99.90;;;;;;4755067;29;20546;-93
2022/01/02 08:20:27;;;;;;;8.43;5.53;;;5.00;99.90;;;;;;4751993;29;20559;-96
2022/01/02 08:22:56;;;;;;;7.33;6.37;;;5.00;99.90;;;;;;4755153;29;20225;-96
2022/01/02 08:25:22;;;;;;;7.33;6.07;;;5.10;99.90;;;;;;4738708;29;20478;-94
2022/01/02 08:28:05;;;;;;;7.30;5.60;;;5.20;99.90;;;;;;4756369;29;20965;-95
2022/01/02 08:31:16;;;;;;;7.30;6.00;;;5.30;99.90;;;;;;4760331;29;20576;-96
2022/01/02 08:33:44;;;;;;;7.47;6.30;;;5.40;99.90;;;;;;4741665;29;20470;-96
2022/01/02 08:36:10;;;;;;;6.13;5.43;;;5.70;99.90;;;;;;4740570;29;20461;-95
2022/01/02 08:38:36;;;;;;;6.13;5.53;;;5.90;99.90;;;;;;4739567;29;20480;-94
2022/01/02 08:41:02;;;;;;;5.90;5.10;;;6.20;99.90;;;;;;4755735;29;20756;-94
2022/01/02 08:43:28;;;;;;;6.80;5.50;;;6.30;99.90;;;;;;4755360;29;20508;-93
2022/01/02 08:45:54;;;;;;;6.73;5.67;;;6.40;99.90;;;;;;4736548;29;20462;-94
2022/01/02 08:48:19;;;;;;;6.10;5.03;;;6.60;99.90;;;;;;4750973;29;20477;-91
2022/01/02 08:50:48;;;;;;;6.10;5.30;;;6.70;99.90;;;;;;4751248;29;20209;-95
2022/01/02 08:53:13;;;;;;;7.47;5.50;;;6.90;99.90;;;;;;4737701;29;20250;-92
2022/01/02 08:55:39;;;;;;;5.10;4.40;;;7.10;99.90;;;;;;4751251;29;20474;-94
2022/01/02 08:58:08;;;;;;;5.30;4.47;;;7.40;99.90;;;;;;4739303;29;20208;-93
2022/01/02 09:00:34;;;;;;;4.30;3.90;;;7.70;99.90;;;;;;4739126;29;20534;-92
2022/01/02 09:03:00;;;;;;;5.00;4.50;;;7.70;99.90;;;;;;4734860;29;20608;-93
2022/01/02 09:05:27;;;;;;;5.07;4.57;;;7.80;99.90;;;;;;4739822;29;20845;-92
2022/01/02 09:07:56;;;;;;;4.50;4.10;;;7.80;99.90;;;;;;4754511;29;20219;-94
2022/01/02 09:10:24;;;;;;;5.70;5.10;;;7.80;99.90;;;;;;4734295;29;20473;-92
2022/01/02 09:12:50;;;;;;;5.67;5.07;;;7.70;99.90;;;;;;4760563;29;20460;-95
2022/01/02 09:15:16;;;;;;;4.70;4.30;;;7.60;99.90;;;;;;4764015;29;20463;-94
2022/01/02 09:17:42;;;;;;;5.47;4.30;;;7.60;99.90;;;;;;4762913;29;20206;-93
2022/01/02 09:20:13;;;;;;;5.10;4.10;;;7.60;99.90;;;;;;4754724;29;20499;-93
2022/01/02 09:22:39;;;;;;;4.90;4.40;;;7.90;99.90;;;;;;4752362;29;21263;-93
2022/01/02 09:25:07;;;;;;;5.70;4.50;;;8.10;99.90;;;;;;4738685;29;21155;-92
2022/01/02 09:27:42;;;;;;;6.20;5.30;;;8.40;99.90;;;;;;4756412;29;21079;-95
2022/01/02 09:30:10;;;;;;;5.10;4.60;;;8.50;99.90;;;;;;4756678;29;20476;-93
2022/01/02 09:32:39;;;;;;;5.30;4.80;;;8.40;99.90;;;;;;4738472;29;20497;-91
2022/01/02 09:35:09;;;;;;;5.00;4.50;;;8.20;99.90;;;;;;4753343;29;21033;-92
2022/01/02 09:37:47;;;;;;;5.40;4.40;;;8.20;99.90;;;;;;4747652;29;20463;-93
2022/01/02 09:40:25;;;;;;;;;;;;;;;;;;;;;
2022/01/02 09:42:54;;;;;;;5.20;4.70;;;8.10;99.90;;;;;;4767437;29;20499;-94
2022/01/02 09:48:12;;;;;;;4.90;4.37;;;8.00;99.90;;;;;;4752983;29;21169;-94
2022/01/02 09:50:47;;;;;;;6.03;5.30;;;8.00;99.90;;;;;;4757146;29;20470;-94
2022/01/02 09:53:13;;;;;;;5.80;5.20;;;8.00;99.90;;;;;;4741212;29;21011;-93
2022/01/02 09:56:02;;;;;;;5.00;4.43;;;7.90;99.90;;;;;;4758210;29;20468;-93
2022/01/02 09:58:30;;;;;;;6.43;5.57;;;7.90;99.90;;;;;;4751760;29;20580;-93
2022/01/02 10:00:56;;;;;;;6.80;5.60;;;7.80;99.90;;;;;;4737286;29;20484;-91
2022/01/02 10:03:22;;;;;;;7.37;5.90;;;7.70;99.90;;;;;;4750907;29;20485;-91
2022/01/02 10:06:04;;;;;;;13.00;5.23;;;7.60;99.90;;;;;;4725503;29;20212;-94
2022/01/02 10:08:50;;;;;;;5.77;4.33;;;7.70;99.90;;;;;;4753718;29;20881;-91
2022/01/02 10:11:24;;;;;;;5.50;4.83;;;7.80;99.90;;;;;;4743439;29;20528;-91
2022/01/02 10:14:01;;;;;;;7.07;6.37;;;8.00;99.90;;;;;;4737517;29;20566;-94
2022/01/02 10:16:50;;;;;;;6.87;5.93;;;8.30;99.90;;;;;;4757154;29;20465;-91
2022/01/02 10:20:04;;;;;;;6.60;5.63;;;8.50;99.90;;;;;;4751868;29;20478;-91
2022/01/02 10:23:01;;;;;;;5.30;4.80;;;8.70;99.90;;;;;;4742661;29;20489;-94
2022/01/02 10:26:00;;;;;;;5.80;5.20;;;8.80;99.90;;;;;;4750566;29;20549;-93
2022/01/02 10:31:54;;;;;;;;;;;;;;;;;;;;;
2022/01/02 10:34:48;;;;;;;;;;;;;;;;;;;;;
2022/01/02 10:41:34;;;;;;;8.00;5.50;;;8.70;99.90;;;;;;4683731;30;20492;-92
2022/01/02 10:45:01;;;;;;;5.33;4.83;;;8.60;99.90;;;;;;4711609;30;20460;-94
2022/01/02 10:54:59;;;;;;;;;;;;;;;;;;;;;
2022/01/02 10:57:52;;;;;;;6.03;5.43;;;8.50;99.90;;;;;;4712405;29;20881;-93
2022/01/02 11:00:31;;;;;;;5.17;4.67;;;8.40;99.90;;;;;;4746683;29;20454;-93
2022/01/02 11:03:57;;;;;;;6.00;5.40;;;8.60;99.90;;;;;;4733450;29;20493;-94
2022/01/02 11:06:41;;;;;;;5.27;4.77;;;8.70;99.90;;;;;;4732720;29;20466;-96
2022/01/02 14:38:48;;;;;;;3.47;3.00;;;12.90;96.90;;;;;;4750129;29;21039;-92
2022/01/02 14:41:17;;;;;;;3.60;3.30;;;12.80;96.90;;;;;;4735345;29;20524;-91
2022/01/02 14:43:52;;;;;;;3.40;3.10;;;12.90;96.90;;;;;;4748843;29;20479;-95
2022/01/02 14:46:18;;;;;;;3.13;2.80;;;12.80;97.10;;;;;;4745343;29;21050;-94
2022/01/02 14:48:48;;;;;;;3.33;3.03;;;12.80;97.00;;;;;;4757085;29;20463;-95
2022/01/02 14:51:39;;;;;;;7.33;3.40;;;12.90;97.00;;;;;;4758730;29;20461;-95
2022/01/02 14:54:05;;;;;;;3.57;3.27;;;12.90;96.90;;;;;;4749784;29;21048;-92
2022/01/02 14:56:31;;;;;;;3.50;3.10;;;12.90;96.80;;;;;;4752227;29;20480;-96
2022/01/02 14:59:05;;;;;;;3.10;2.80;;;13.00;96.90;;;;;;4738411;29;20713;-92
2022/01/02 15:01:31;;;;;;;4.93;2.80;;;12.90;97.20;;;;;;4725909;29;20289;-90
2022/01/02 15:03:58;;;;;;;2.50;2.30;;;12.90;97.10;;;;;;4725981;29;21140;-91
2022/01/02 15:06:24;;;;;;;2.77;2.30;;;13.00;96.60;;;;;;4750094;29;20463;-90
2022/01/02 15:08:50;;;;;;;3.17;2.37;;;13.10;96.60;;;;;;4736258;29;20470;-89
2022/01/02 15:11:19;;;;;;;2.93;2.73;;;13.10;96.60;;;;;;4741596;29;21012;-90
2022/01/02 15:13:45;;;;;;;2.53;2.30;;;13.10;96.70;;;;;;4740478;29;20466;-91
2022/01/02 15:16:13;;;;;;;5.17;2.67;;;13.10;96.80;;;;;;4745691;29;20559;-90
2022/01/02 15:18:41;;;;;;;2.40;2.20;;;13.10;96.40;;;;;;4731242;29;20244;-89
2022/01/02 15:21:08;;;;;;;3.50;2.40;;;13.10;96.50;;;;;;4744613;29;20506;-90
2022/01/02 15:23:34;;;;;;;2.33;2.13;;;13.10;96.50;;;;;;4748886;29;20482;-91
2022/01/02 15:26:17;;;;;;;2.90;2.53;;;13.10;96.30;;;;;;4757605;29;20511;-93
